createdAt,value
2019-02-08T07:58:19.221Z,177
2019-02-08T07:58:27.414Z,227
2019-02-08T07:58:35.570Z,164
2019-02-08T07:58:43.808Z,187
2019-02-08T07:58:51.966Z,255
2019-02-08T07:59:00.403Z,256
2019-02-08T07:59:08.608Z,257
2019-02-08T07:59:17.817Z,259
2019-02-08T07:59:26.075Z,259
2019-02-08T07:59:34.338Z,262
2019-02-08T07:59:42.534Z,243
2019-02-08T07:59:50.783Z,226
2019-02-08T07:59:58.987Z,237
2019-02-08T08:00:07.184Z,246
2019-02-08T08:00:15.358Z,226
2019-02-08T08:00:23.542Z,229
2019-02-08T08:00:31.738Z,231
2019-02-08T08:00:40.951Z,235
2019-02-08T08:00:49.285Z,257
2019-02-08T08:00:57.451Z,257
2019-02-08T08:01:05.627Z,264
2019-02-08T08:01:13.902Z,260
2019-02-08T08:01:22.061Z,259
2019-02-08T08:01:30.211Z,278
2019-02-08T08:01:38.403Z,268
2019-02-08T08:01:46.632Z,245
2019-02-08T08:01:54.834Z,258
2019-02-08T08:02:03.029Z,258
2019-02-08T08:02:11.227Z,260
2019-02-08T08:02:20.464Z,262
2019-02-08T08:02:28.704Z,265
2019-02-08T08:02:36.865Z,292
2019-02-08T08:02:45.093Z,291
2019-02-08T08:02:53.297Z,292
2019-02-08T08:03:01.505Z,296
2019-02-08T08:03:09.733Z,297
2019-02-08T08:03:17.914Z,299
2019-02-08T08:03:26.158Z,300
2019-02-08T08:03:34.944Z,301
2019-02-08T08:03:43.389Z,302
2019-02-08T08:03:52.043Z,303
2019-02-08T08:04:04.646Z,305
2019-02-08T08:04:13.753Z,309
2019-02-08T08:04:22.958Z,291
2019-02-08T08:04:31.946Z,303
2019-02-08T08:04:40.979Z,317
2019-02-08T08:04:50.184Z,318
2019-02-08T08:04:59.477Z,316
2019-02-08T08:05:07.768Z,316
2019-02-08T08:05:16.669Z,310
2019-02-08T08:05:25.620Z,311
2019-02-08T08:05:34.519Z,310
2019-02-08T08:05:43.763Z,309
2019-02-08T08:05:52.573Z,316
2019-02-08T08:06:01.439Z,288
2019-02-08T08:06:10.828Z,347
2019-02-08T08:06:20.256Z,335
2019-02-08T08:06:29.619Z,269
2019-02-08T08:06:38.649Z,253
2019-02-08T08:06:48.010Z,146
2019-02-08T08:06:57.223Z,336
2019-02-08T08:07:05.915Z,355
2019-02-08T08:07:15.261Z,258
2019-02-08T08:07:24.506Z,313
2019-02-08T08:07:33.838Z,315
2019-02-08T08:07:44.219Z,227
2019-02-08T08:07:54.332Z,318
2019-02-08T08:08:04.146Z,109
2019-02-08T08:08:13.246Z,61
2019-02-08T08:08:22.267Z,156
2019-02-08T08:08:31.268Z,167
2019-02-08T08:08:40.138Z,157
2019-02-08T08:08:49.689Z,168
2019-02-08T08:08:58.808Z,163
2019-02-08T08:09:07.764Z,139
2019-02-08T08:09:16.891Z,167
2019-02-08T08:09:25.989Z,173
2019-02-08T08:09:35.121Z,168
2019-02-08T08:09:45.122Z,168
2019-02-08T08:09:54.260Z,169
2019-02-08T08:10:03.264Z,169
2019-02-08T08:10:12.595Z,173
2019-02-08T08:10:21.749Z,172
2019-02-08T08:10:32.086Z,169
2019-02-08T08:10:42.441Z,173
2019-02-08T08:10:51.804Z,173
2019-02-08T08:11:00.986Z,171
2019-02-08T08:11:11.134Z,172
2019-02-08T08:11:20.008Z,147
2019-02-08T08:11:29.313Z,160
2019-02-08T08:11:38.653Z,164
2019-02-08T08:11:47.947Z,163
2019-02-08T08:11:57.342Z,163
2019-02-08T08:12:06.312Z,166
2019-02-08T08:12:15.482Z,165
2019-02-08T08:12:24.462Z,164
2019-02-08T08:12:33.449Z,161
2019-02-08T08:12:42.807Z,163
2019-02-08T08:12:52.129Z,164
2019-02-08T08:13:01.120Z,161
2019-02-08T08:13:10.407Z,154
2019-02-08T08:13:19.748Z,157
2019-02-08T08:13:28.991Z,167
2019-02-08T08:13:38.382Z,169
2019-02-08T08:13:47.180Z,170
2019-02-08T08:13:56.332Z,180
2019-02-08T08:14:05.340Z,176
2019-02-08T08:14:14.671Z,169
2019-02-08T08:14:23.903Z,166
2019-02-08T08:14:32.088Z,165
2019-02-08T08:14:40.307Z,138
2019-02-08T08:14:48.519Z,180
2019-02-08T08:14:57.224Z,172
2019-02-08T08:15:06.131Z,170
2019-02-08T08:15:15.432Z,174
2019-02-08T08:15:24.389Z,170
2019-02-08T08:15:33.757Z,168
2019-02-08T08:15:43.169Z,173
2019-02-08T08:15:52.359Z,171
2019-02-08T08:16:01.392Z,172
2019-02-08T08:16:10.775Z,167
2019-02-08T08:16:20.165Z,178
2019-02-08T08:16:29.468Z,176
2019-02-08T08:16:38.485Z,177
2019-02-08T08:16:47.852Z,175
2019-02-08T08:16:57.057Z,175
2019-02-08T08:17:06.098Z,176
2019-02-08T08:17:15.489Z,177
2019-02-08T08:17:24.672Z,179
2019-02-08T08:17:34.038Z,177
2019-02-08T08:17:43.047Z,175
2019-02-08T08:17:52.074Z,178
2019-02-08T08:18:01.096Z,178
2019-02-08T08:18:10.960Z,177
2019-02-08T08:18:20.310Z,176
2019-02-08T08:18:29.655Z,174
2019-02-08T08:18:39.943Z,179
2019-02-08T08:18:48.924Z,175
2019-02-08T08:18:58.240Z,173
2019-02-08T08:19:07.285Z,177
2019-02-08T08:19:16.545Z,179
2019-02-08T08:19:26.697Z,185
2019-02-08T08:19:36.098Z,173
2019-02-08T08:19:45.472Z,189
2019-02-08T08:19:54.809Z,191
2019-02-08T08:20:03.834Z,187
2019-02-08T08:20:12.917Z,179
2019-02-08T08:20:22.136Z,186
2019-02-08T08:20:31.507Z,196
2019-02-08T08:20:40.872Z,214
2019-02-08T08:20:50.306Z,206
2019-02-08T08:20:59.779Z,207
2019-02-08T08:21:08.810Z,224
2019-02-08T08:21:18.147Z,211
2019-02-08T08:21:27.509Z,192
2019-02-08T08:21:36.846Z,210
2019-02-08T08:21:47.199Z,225
2019-02-08T08:21:56.517Z,233
2019-02-08T08:22:05.531Z,261
2019-02-08T08:22:14.716Z,281
2019-02-08T08:22:24.019Z,271
2019-02-08T08:22:33.341Z,86
2019-02-08T08:22:42.702Z,270
2019-02-08T08:22:52.027Z,267
2019-02-08T08:23:01.107Z,259
2019-02-08T08:23:10.993Z,262
2019-02-08T08:23:20.289Z,285
2019-02-08T08:23:29.636Z,289
2019-02-08T08:23:38.996Z,317
2019-02-08T08:23:48.031Z,347
2019-02-08T08:23:57.262Z,305
2019-02-08T08:24:06.137Z,260
2019-02-08T08:24:15.469Z,270
2019-02-08T08:24:24.359Z,301
2019-02-08T08:24:34.341Z,330
2019-02-08T08:24:43.734Z,327
2019-02-08T08:24:53.088Z,338
2019-02-08T08:25:01.984Z,340
2019-02-08T08:25:12.182Z,336
2019-02-08T08:25:22.499Z,338
2019-02-08T08:25:35.103Z,349
2019-02-08T08:25:44.590Z,349
2019-02-08T08:25:53.778Z,345
2019-02-08T08:26:02.874Z,347
2019-02-08T08:26:12.049Z,349
2019-02-08T08:26:21.342Z,350
2019-02-08T08:26:29.617Z,350
2019-02-08T08:26:38.365Z,370
2019-02-08T08:26:47.590Z,347
2019-02-08T08:26:56.910Z,345
2019-02-08T08:27:05.265Z,328
2019-02-08T08:27:13.500Z,325
2019-02-08T08:27:22.704Z,317
2019-02-08T08:27:31.040Z,588
2019-02-08T08:27:39.796Z,148
2019-02-08T08:27:48.318Z,3399
2019-02-08T08:27:56.878Z,4569
2019-02-08T08:28:05.302Z,4678
2019-02-08T08:28:14.111Z,4681
2019-02-08T08:28:22.632Z,4677
2019-02-08T08:28:31.203Z,4683
2019-02-08T08:28:39.762Z,4692
2019-02-08T08:28:48.320Z,4700
2019-02-08T08:28:56.909Z,4702
2019-02-08T08:29:06.557Z,4712
2019-02-08T08:29:15.090Z,4720
2019-02-08T08:29:24.609Z,4726
2019-02-08T08:29:33.432Z,4731
2019-02-08T08:29:42.116Z,4735
2019-02-08T08:29:51.002Z,4746
2019-02-08T08:29:59.531Z,4754
2019-02-08T08:30:08.767Z,4758
2019-02-08T08:30:17.663Z,4754
2019-02-08T08:30:26.725Z,4752
2019-02-08T08:30:36.045Z,4753
2019-02-08T08:30:45.272Z,4757
2019-02-08T08:30:54.298Z,4754
2019-02-08T08:31:03.192Z,4758
2019-02-08T08:31:12.062Z,4756
2019-02-08T08:31:21.396Z,4749
2019-02-08T08:31:30.530Z,4748
2019-02-08T08:31:39.896Z,4752
2019-02-08T08:31:49.329Z,4755
2019-02-08T08:31:59.712Z,4757
2019-02-08T08:32:08.655Z,4760
2019-02-08T08:32:18.035Z,4763
2019-02-08T08:32:27.361Z,4761
2019-02-08T08:32:36.609Z,4763
2019-02-08T08:32:45.840Z,4773
2019-02-08T08:32:55.038Z,4780
2019-02-08T08:33:05.089Z,4784
2019-02-08T08:33:15.438Z,4785
2019-02-08T08:33:24.795Z,4782
2019-02-08T08:33:34.004Z,4780
2019-02-08T08:33:43.039Z,4779
2019-02-08T08:33:51.902Z,4774
2019-02-08T08:34:00.898Z,4756
2019-02-08T08:34:10.011Z,4737
2019-02-08T08:34:20.194Z,4729
2019-02-08T08:34:28.955Z,4739
2019-02-08T08:34:38.196Z,4750
2019-02-08T08:34:47.548Z,4743
2019-02-08T08:34:57.903Z,4743
2019-02-08T08:35:06.933Z,4757
2019-02-08T08:35:16.313Z,4777
2019-02-08T08:35:25.060Z,4779
2019-02-08T08:35:34.002Z,4787
2019-02-08T08:35:43.394Z,4809
2019-02-08T08:35:52.873Z,4825
2019-02-08T08:36:01.919Z,4825
2019-02-08T08:36:11.259Z,4826
2019-02-08T08:36:20.620Z,4840
2019-02-08T08:36:30.068Z,4857
2019-02-08T08:36:39.561Z,4849
2019-02-08T08:36:48.774Z,4834
2019-02-08T08:36:58.185Z,4836
2019-02-08T08:37:07.239Z,4841
2019-02-08T08:37:16.264Z,4848
2019-02-08T08:37:26.422Z,4852
2019-02-08T08:37:35.688Z,4841
2019-02-08T08:37:45.114Z,4849
2019-02-08T08:37:54.294Z,4858
2019-02-08T08:38:03.253Z,4877
2019-02-08T08:38:12.658Z,4885
2019-02-08T08:38:22.004Z,4903
2019-02-08T08:38:31.384Z,4904
2019-02-08T08:38:40.743Z,4923
2019-02-08T08:38:49.600Z,4923
2019-02-08T08:38:58.796Z,4932
2019-02-08T08:39:07.830Z,4939
2019-02-08T08:39:16.760Z,4931
2019-02-08T08:39:25.357Z,4928
2019-02-08T08:39:34.011Z,4934
2019-02-08T08:39:43.877Z,4932
2019-02-08T08:39:52.343Z,4934
2019-02-08T08:40:00.543Z,4950
2019-02-08T08:40:08.759Z,4962
2019-02-08T08:40:16.987Z,4975
2019-02-08T08:40:25.559Z,4986
2019-02-08T08:40:34.358Z,4983
2019-02-08T08:40:43.216Z,4992
2019-02-08T08:40:51.629Z,5005
2019-02-08T08:41:00.466Z,5005
2019-02-08T08:41:09.178Z,5018
2019-02-08T08:41:17.614Z,5025
2019-02-08T08:41:26.060Z,5006
2019-02-08T08:41:35.673Z,4994
2019-02-08T08:41:44.478Z,4999
2019-02-08T08:41:52.865Z,4999
2019-02-08T08:42:01.384Z,4998
2019-02-08T08:42:09.587Z,4998
2019-02-08T08:42:17.956Z,5003
2019-02-08T08:42:26.145Z,5018
2019-02-08T08:42:34.337Z,5026
2019-02-08T08:42:42.527Z,5045
2019-02-08T08:42:51.495Z,5063
2019-02-08T08:43:00.304Z,5071
2019-02-08T08:43:09.127Z,5073
2019-02-08T08:43:18.967Z,5070
2019-02-08T08:43:27.367Z,5056
2019-02-08T08:43:35.592Z,5049
2019-02-08T08:43:43.800Z,5048
2019-02-08T08:43:53.414Z,5063
2019-02-08T08:44:02.555Z,5067
2019-02-08T08:44:11.614Z,5086
2019-02-08T08:44:20.659Z,5106
2019-02-08T08:44:29.227Z,5115
2019-02-08T08:44:38.559Z,5113
2019-02-08T08:44:47.889Z,5093
2019-02-08T08:44:56.891Z,5100
2019-02-08T08:45:05.757Z,5104
2019-02-08T08:45:14.839Z,5103
2019-02-08T08:45:23.858Z,5114
2019-02-08T08:45:32.869Z,5125
2019-02-08T08:45:42.243Z,5137
2019-02-08T08:45:51.489Z,5141
2019-02-08T08:46:01.573Z,5149
2019-02-08T08:46:10.873Z,5155
2019-02-08T08:46:20.171Z,5156
2019-02-08T08:46:29.036Z,5161
2019-02-08T08:46:38.311Z,5166
2019-02-08T08:46:48.455Z,5193
2019-02-08T08:46:57.663Z,5207
2019-02-08T08:47:06.681Z,5219
2019-02-08T08:47:16.029Z,5225
2019-02-08T08:47:25.034Z,5235
2019-02-08T08:47:34.203Z,5242
2019-02-08T08:47:43.250Z,5256
2019-02-08T08:47:52.178Z,5274
2019-02-08T08:48:01.093Z,5287
2019-02-08T08:48:10.425Z,5296
2019-02-08T08:48:19.746Z,5307
2019-02-08T08:48:28.202Z,5324
2019-02-08T08:48:37.277Z,5328
2019-02-08T08:48:45.985Z,5344
2019-02-08T08:48:54.972Z,5356
2019-02-08T08:49:03.943Z,5363
2019-02-08T08:49:13.153Z,5358
2019-02-08T08:49:22.366Z,5367
2019-02-08T08:49:31.376Z,5385
2019-02-08T08:49:40.387Z,5394
2019-02-08T08:49:49.295Z,5402
2019-02-08T08:49:58.249Z,5404
2019-02-08T08:50:07.134Z,5403
2019-02-08T08:50:16.406Z,5408
2019-02-08T08:50:25.737Z,5430
2019-02-08T08:50:35.086Z,5444
2019-02-08T08:50:46.057Z,5449
2019-02-08T08:50:55.607Z,5454
2019-02-08T08:51:04.469Z,5460
2019-02-08T08:51:13.860Z,5462
2019-02-08T08:51:22.955Z,5467
2019-02-08T08:51:32.321Z,5482
2019-02-08T08:51:41.620Z,5493
2019-02-08T08:51:50.976Z,5498
2019-02-08T08:52:00.134Z,5509
2019-02-08T08:52:09.171Z,5519
2019-02-08T08:52:18.235Z,5509
2019-02-08T08:52:27.594Z,5509
2019-02-08T08:52:36.648Z,5524
2019-02-08T08:52:45.681Z,5553
2019-02-08T08:52:55.078Z,5584
2019-02-08T08:53:04.128Z,5608
2019-02-08T08:53:13.411Z,5629
2019-02-08T08:53:22.599Z,5643
2019-02-08T08:53:31.506Z,5661
2019-02-08T08:53:40.713Z,5672
2019-02-08T08:53:50.448Z,5683
2019-02-08T08:54:00.296Z,5694
2019-02-08T08:54:08.786Z,5709
2019-02-08T08:54:17.004Z,5714
2019-02-08T08:54:25.872Z,5718
2019-02-08T08:54:35.089Z,5748
2019-02-08T08:54:44.471Z,5758
2019-02-08T08:54:53.633Z,5779
2019-02-08T08:55:02.204Z,5784
2019-02-08T08:55:10.519Z,5794
2019-02-08T08:55:18.818Z,5800
2019-02-08T08:55:28.232Z,5805
2019-02-08T08:55:42.126Z,5814
2019-02-08T08:55:50.030Z,5825
2019-02-08T08:55:59.252Z,5828
2019-02-08T08:56:08.287Z,5843
2019-02-08T08:56:17.463Z,5854
2019-02-08T08:56:26.271Z,5854
2019-02-08T08:56:35.666Z,5864
2019-02-08T08:56:45.279Z,5885
2019-02-08T08:56:54.682Z,5900
2019-02-08T08:57:03.575Z,5911
2019-02-08T08:57:12.894Z,5929
2019-02-08T08:57:23.817Z,5935
2019-02-08T08:57:34.212Z,5943
2019-02-08T08:57:43.228Z,5944
2019-02-08T08:57:52.622Z,5949
2019-02-08T08:58:01.670Z,5965
2019-02-08T08:58:10.933Z,5979
2019-02-08T08:58:20.217Z,5995
2019-02-08T08:58:30.072Z,6009
2019-02-08T08:58:39.266Z,6019
2019-02-08T08:58:48.316Z,6025
2019-02-08T08:58:57.669Z,6017
2019-02-08T08:59:06.375Z,6005
2019-02-08T08:59:19.224Z,6014
2019-02-08T08:59:29.334Z,6026
2019-02-08T08:59:38.477Z,6015
2019-02-08T08:59:47.620Z,6003
2019-02-08T08:59:58.825Z,6013
2019-02-08T09:00:09.298Z,6059
2019-02-08T09:00:18.092Z,6083
2019-02-08T09:00:26.809Z,6110
2019-02-08T09:00:35.710Z,6125
2019-02-08T09:00:45.068Z,6131
2019-02-08T09:00:54.286Z,6138
2019-02-08T09:01:03.283Z,6145
2019-02-08T09:01:11.984Z,6151
2019-02-08T09:01:22.195Z,6158
2019-02-08T09:01:31.563Z,6170
2019-02-08T09:01:40.746Z,6180
2019-02-08T09:01:49.776Z,6195
2019-02-08T09:01:58.802Z,6209
2019-02-08T09:02:07.817Z,6214
2019-02-08T09:02:16.872Z,6221
2019-02-08T09:02:26.197Z,6238
2019-02-08T09:02:35.515Z,6252
2019-02-08T09:02:44.874Z,6268
2019-02-08T09:02:53.888Z,6273
2019-02-08T09:03:03.116Z,6284
2019-02-08T09:03:11.490Z,6288
2019-02-08T09:03:20.787Z,5983
2019-02-08T17:25:06.207Z,3
2019-02-08T17:25:14.385Z,2
2019-02-08T17:25:22.662Z,4
2019-02-08T18:22:05.364Z,6
2019-02-08T18:22:15.504Z,6
2019-02-08T18:22:23.703Z,6
2019-02-08T18:22:32.855Z,5
2019-02-08T18:22:41.017Z,5
2019-02-08T18:22:49.235Z,5
2019-02-08T18:22:57.439Z,6
2019-02-08T18:23:05.941Z,6
2019-02-08T18:23:14.591Z,5
2019-02-08T18:23:23.741Z,5
2019-02-08T18:23:33.111Z,6
2019-02-08T18:23:42.354Z,6
2019-02-08T18:23:51.417Z,6
2019-02-08T18:24:01.038Z,5
2019-02-08T18:24:10.234Z,6
2019-02-08T18:24:20.506Z,6
2019-02-08T18:24:29.135Z,1
2019-02-08T18:24:37.994Z,6
2019-02-08T18:24:47.158Z,6
2019-02-08T18:24:55.868Z,5
2019-02-08T18:25:04.752Z,5
2019-02-08T18:25:13.894Z,6
2019-02-08T18:25:22.864Z,6
2019-02-08T18:25:31.899Z,5
2019-02-08T18:25:40.350Z,5
2019-02-08T18:25:49.357Z,5
2019-02-08T18:25:59.614Z,5
2019-02-08T18:26:08.743Z,5
2019-02-08T18:26:17.908Z,5
2019-02-08T18:26:27.184Z,6
2019-02-08T18:26:36.529Z,5
2019-02-08T18:26:45.893Z,5
2019-02-08T18:26:54.956Z,8
2019-02-08T18:27:03.961Z,12
2019-02-08T18:27:14.310Z,10
2019-02-08T18:27:23.687Z,10
2019-02-08T18:27:33.051Z,10
2019-02-08T18:27:42.418Z,9
2019-02-08T18:27:51.746Z,9
2019-02-08T18:28:01.023Z,10
2019-02-08T18:28:13.498Z,10
2019-02-08T18:28:22.873Z,10
2019-02-08T18:28:31.135Z,10
2019-02-08T18:28:40.376Z,10
2019-02-08T18:28:48.566Z,10
2019-02-08T18:28:56.712Z,10
2019-02-08T18:29:04.911Z,8
2019-02-08T18:29:13.064Z,10
2019-02-08T18:29:21.234Z,10
2019-02-08T18:29:29.481Z,10
2019-02-08T18:29:37.646Z,10
2019-02-08T18:29:45.820Z,8
2019-02-08T18:29:53.978Z,10
2019-02-08T18:30:02.153Z,10
2019-02-08T18:30:10.346Z,10
2019-02-08T18:30:20.065Z,10
2019-02-08T18:30:28.838Z,10
2019-02-08T18:30:37.009Z,10
2019-02-08T18:30:45.771Z,9
2019-02-08T18:30:54.166Z,8
2019-02-08T18:31:02.634Z,10
2019-02-08T18:31:11.274Z,10
2019-02-08T18:31:19.834Z,10
2019-02-08T18:31:28.388Z,10
2019-02-08T18:31:36.873Z,10
2019-02-08T18:31:45.370Z,10
2019-02-08T18:31:53.840Z,10
2019-02-08T18:32:02.117Z,10
2019-02-08T18:32:10.492Z,10
2019-02-08T18:32:19.158Z,10
2019-02-08T18:32:28.583Z,10
2019-02-08T18:32:37.700Z,10
2019-02-08T18:32:46.657Z,10
2019-02-08T18:32:55.673Z,10
2019-02-08T18:33:03.966Z,10
2019-02-08T18:33:13.690Z,10
2019-02-08T18:33:22.003Z,10
2019-02-08T18:33:30.583Z,10
2019-02-08T18:33:39.134Z,10
2019-02-08T18:33:48.669Z,10
2019-02-08T18:33:58.385Z,10
2019-02-08T18:34:06.745Z,10
2019-02-08T18:34:15.131Z,10
2019-02-08T18:34:24.059Z,11
2019-02-08T18:34:32.860Z,11
2019-02-08T18:34:41.512Z,11
2019-02-08T18:34:51.489Z,11
2019-02-08T18:35:00.183Z,10
2019-02-08T18:35:08.992Z,10
2019-02-08T18:35:18.182Z,10
2019-02-08T18:35:27.296Z,11
2019-02-08T18:35:36.647Z,10
2019-02-08T18:35:45.835Z,10
2019-02-08T18:35:55.146Z,10
2019-02-08T18:36:05.076Z,10
2019-02-08T18:36:15.253Z,10
2019-02-08T18:36:24.579Z,7
2019-02-08T18:36:33.754Z,8
2019-02-08T18:36:42.797Z,10
2019-02-08T18:36:51.964Z,10
2019-02-08T18:37:01.022Z,10
2019-02-08T18:37:09.832Z,10
2019-02-08T18:37:18.970Z,10
2019-02-08T18:37:28.346Z,10
2019-02-08T18:37:37.708Z,10
2019-02-08T18:37:47.085Z,10
2019-02-08T18:37:56.441Z,10
2019-02-08T18:38:06.308Z,10
2019-02-08T18:38:15.579Z,10
2019-02-08T18:38:24.791Z,10
2019-02-08T18:38:34.126Z,10
2019-02-08T18:38:43.460Z,10
2019-02-08T18:38:52.687Z,10
2019-02-08T18:39:03.496Z,10
2019-02-08T18:39:12.709Z,10
2019-02-08T18:39:22.016Z,10
2019-02-08T18:39:31.205Z,10
2019-02-08T18:39:40.522Z,11
2019-02-08T18:39:49.816Z,11
2019-02-08T18:39:59.138Z,10
2019-02-08T18:40:07.979Z,9
2019-02-08T18:40:17.157Z,8
2019-02-08T18:40:26.517Z,8
2019-02-08T18:40:35.687Z,8
2019-02-08T18:40:44.507Z,8
2019-02-08T18:40:53.734Z,8
2019-02-08T18:41:03.697Z,8
2019-02-08T18:41:12.574Z,8
2019-02-08T18:41:21.905Z,8
2019-02-08T18:41:30.911Z,8
2019-02-08T18:41:40.101Z,8
2019-02-08T18:41:49.459Z,8
2019-02-08T18:41:59.660Z,8
2019-02-08T18:42:08.647Z,8
2019-02-08T18:42:18.023Z,8
2019-02-08T18:42:27.208Z,8
2019-02-08T18:42:36.551Z,8
2019-02-08T18:42:45.690Z,8
2019-02-08T18:42:55.031Z,2
2019-02-08T18:43:04.056Z,4
2019-02-08T18:43:13.372Z,5
2019-02-08T18:43:22.696Z,6
2019-02-08T18:43:33.028Z,6
2019-02-08T18:43:42.410Z,5
2019-02-08T18:43:51.530Z,5
2019-02-08T18:44:01.590Z,5
2019-02-08T18:44:10.838Z,5
2019-02-08T18:44:20.192Z,5
2019-02-08T18:44:30.394Z,5
2019-02-08T18:44:40.546Z,11
2019-02-08T18:44:50.664Z,3
2019-02-08T18:45:00.330Z,2
2019-02-08T18:45:09.938Z,2
2019-02-08T18:45:20.044Z,2
2019-02-08T18:45:29.975Z,17
2019-02-08T18:45:40.203Z,3
2019-02-08T18:45:50.268Z,3
2019-02-08T18:46:00.267Z,3
2019-02-08T18:46:09.853Z,3
2019-02-08T18:46:20.079Z,3
2019-02-08T18:46:29.849Z,3
2019-02-08T18:46:40.090Z,3
2019-02-08T18:46:50.141Z,3
2019-02-08T18:47:00.098Z,3
2019-02-08T18:47:09.924Z,3
2019-02-08T18:47:19.670Z,3
2019-02-08T18:47:29.873Z,3
2019-02-08T18:47:39.467Z,3
2019-02-08T18:47:48.773Z,3
2019-02-08T18:47:58.029Z,3
2019-02-08T18:48:07.078Z,3
2019-02-08T18:48:16.391Z,3
2019-02-08T18:48:25.455Z,3
2019-02-08T18:48:34.864Z,3
2019-02-08T18:48:44.880Z,3
2019-02-08T18:48:53.031Z,3
2019-02-08T18:49:02.221Z,3
2019-02-08T18:49:10.532Z,3
2019-02-08T18:49:18.730Z,3
2019-02-08T18:49:26.968Z,3
2019-02-08T18:49:36.093Z,3
2019-02-08T18:49:44.239Z,3
2019-02-08T18:49:52.389Z,3
2019-02-08T18:50:00.513Z,3
2019-02-08T18:50:09.648Z,3
2019-02-08T18:50:17.812Z,3
2019-02-08T18:50:25.967Z,3
2019-02-08T18:50:34.226Z,3
2019-02-08T18:50:43.208Z,3
2019-02-08T18:50:51.345Z,3
2019-02-08T18:50:59.487Z,3
2019-02-08T18:51:09.675Z,3
2019-02-08T18:51:17.815Z,3
2019-02-08T18:51:25.955Z,3
2019-02-08T18:51:34.101Z,3
2019-02-08T18:51:42.253Z,3
2019-02-08T18:51:50.442Z,3
2019-02-08T18:51:58.625Z,3
2019-02-08T18:52:06.801Z,3
2019-02-08T18:52:15.009Z,3
2019-02-08T18:52:24.165Z,3
2019-02-08T18:52:32.312Z,3
2019-02-08T18:52:40.447Z,3
2019-02-08T18:52:49.567Z,3
2019-02-08T18:52:57.706Z,3
2019-02-08T18:53:06.846Z,3
2019-02-08T18:53:16.010Z,3
2019-02-08T18:53:24.179Z,3
2019-02-08T18:53:32.312Z,3
2019-02-08T18:53:40.463Z,3
2019-02-08T18:53:49.577Z,3
2019-02-08T18:53:57.715Z,3
2019-02-08T18:54:08.079Z,3
2019-02-08T18:54:16.644Z,3
2019-02-08T18:54:25.419Z,3
2019-02-08T18:54:34.680Z,3
2019-02-08T18:54:45.029Z,3
2019-02-08T18:54:54.199Z,3
2019-02-08T18:55:04.256Z,3
2019-02-08T18:55:13.219Z,3
2019-02-08T18:55:22.059Z,3
2019-02-08T18:55:31.371Z,3
2019-02-08T18:55:40.417Z,3
2019-02-08T18:55:49.786Z,3
2019-02-08T18:55:59.151Z,3
2019-02-08T18:56:08.154Z,3
2019-02-08T18:56:17.512Z,3
2019-02-08T18:56:26.724Z,3
2019-02-08T18:56:35.561Z,3
2019-02-08T18:56:44.877Z,3
2019-02-08T18:56:54.212Z,3
2019-02-08T18:57:03.711Z,3
2019-02-08T18:57:13.402Z,3
2019-02-08T18:57:22.671Z,3
2019-02-08T18:57:33.986Z,3
2019-02-08T18:57:43.247Z,3
2019-02-08T18:57:52.580Z,3
2019-02-08T18:58:01.592Z,3
2019-02-08T18:58:18.666Z,3
2019-02-08T18:58:24.125Z,3
2019-02-08T18:58:33.365Z,3
2019-02-08T18:58:42.699Z,3
2019-02-08T18:58:51.993Z,3
2019-02-08T18:59:02.359Z,3
2019-02-08T18:59:11.677Z,3
2019-02-08T18:59:20.784Z,3
2019-02-08T18:59:30.898Z,2
2019-02-08T18:59:40.217Z,3
2019-02-08T18:59:49.387Z,0
2019-02-08T18:59:59.554Z,0
2019-02-08T19:00:08.368Z,0
2019-02-08T19:00:18.385Z,0
2019-02-08T19:00:27.574Z,0
2019-02-08T19:00:41.166Z,0
2019-02-08T19:00:50.394Z,0
2019-02-08T19:00:59.819Z,0
2019-02-08T19:01:09.848Z,0
2019-02-08T19:01:19.122Z,0
2019-02-08T19:01:28.327Z,0
2019-02-08T19:01:37.459Z,0
2019-02-08T19:01:46.649Z,0
2019-02-08T19:01:55.516Z,0
2019-02-08T19:02:04.520Z,0
2019-02-08T19:02:13.874Z,0
2019-02-08T19:02:23.203Z,0
2019-02-08T19:02:32.361Z,0
2019-02-08T19:02:40.628Z,1
2019-02-08T19:02:49.344Z,0
2019-02-08T19:02:58.226Z,0
2019-02-08T19:03:08.156Z,1
2019-02-08T19:03:17.288Z,0
2019-02-08T19:03:26.102Z,0
2019-02-08T19:03:35.243Z,0
2019-02-08T19:03:44.547Z,0
2019-02-08T19:03:53.582Z,0
2019-02-08T19:04:02.433Z,0
2019-02-08T19:04:11.616Z,0
2019-02-08T19:04:20.481Z,0
2019-02-08T19:04:29.274Z,0
2019-02-08T19:04:38.526Z,1
2019-02-08T19:04:47.486Z,1
2019-02-08T19:04:56.603Z,1
2019-02-08T19:05:05.545Z,1
2019-02-08T19:05:14.439Z,1
2019-02-08T19:05:23.518Z,1
2019-02-08T19:05:32.471Z,1
2019-02-08T19:05:41.136Z,1
2019-02-08T19:05:50.299Z,1
2019-02-08T19:06:00.044Z,1
2019-02-08T19:06:10.177Z,1
2019-02-08T19:06:19.519Z,1
2019-02-08T19:06:28.575Z,1
2019-02-08T19:06:37.773Z,1
2019-02-08T19:06:47.200Z,1
2019-02-08T19:06:56.635Z,1
2019-02-08T19:07:05.699Z,1
2019-02-08T19:07:14.557Z,1
2019-02-08T19:07:23.954Z,1
2019-02-08T19:07:33.293Z,1
2019-02-08T19:07:42.633Z,0
2019-02-08T19:07:50.903Z,1
2019-02-08T19:07:59.141Z,1
2019-02-08T19:08:07.376Z,1
2019-02-08T19:08:16.709Z,1
2019-02-08T19:08:25.067Z,1
2019-02-08T19:08:35.391Z,1
2019-02-08T19:08:44.628Z,1
2019-02-08T19:08:53.117Z,1
2019-02-08T19:09:01.303Z,1
2019-02-08T19:09:09.532Z,1
2019-02-08T19:09:18.668Z,0
2019-02-08T19:09:26.828Z,1
2019-02-08T19:09:36.027Z,0
2019-02-08T19:09:44.210Z,1
2019-02-08T19:09:52.425Z,1
2019-02-08T19:10:00.634Z,1
2019-02-08T19:10:08.862Z,1
2019-02-08T19:10:17.130Z,0
2019-02-08T19:10:25.771Z,0
2019-02-08T19:10:35.526Z,0
2019-02-08T19:10:45.200Z,0
2019-02-08T19:10:54.105Z,0
2019-02-08T19:11:03.400Z,0
2019-02-08T19:11:13.239Z,0
2019-02-08T19:11:22.656Z,0
2019-02-08T19:11:32.042Z,0
2019-02-08T19:11:41.397Z,0
2019-02-08T19:11:50.448Z,1
2019-02-08T19:11:59.792Z,4
